South Reading, Vermont
Current Conditions -  °F | °C
As of 12:54 PM on Sunday 25 Jan 2015 (Local Time) from KVSF Reporting Station
Few Clouds Few Clouds  
Wind Chill: 18°   Ceiling: Unl
Heat Index: 26°   Visibility: 10mi
Dew Point:   Wind: 7mph
Humidity: 43%   Direction: NA
Pressure: 29.68"   Gusts: 17mph
Location:  43.4162°N, 72.6048°W
Report Text: KVSF 251754Z AUTO VRB06G15KT 10SM FEW046 M03/M14 A2968 RMK AO2 SLP058 60000 T10331144 10011 21033 51021 TSNO
Loading
Personal Weather Stations






























Interactive Weather Map New forecast layout! Learn more

10-Day Weather Forecast

Advertisements
Track Severe Weather on mobile